Time;durP1;ratioP1;P1;durP2;ratioP2;P2;SDS_P1;SDS_P2;PMS_P1;PMS_P2;Temp;Humidity;BMP_temperature;BMP_pressure;BME280_temperature;BME280_humidity;BME280_pressure;Samples;Min_cycle;Max_cycle;Signal;HPM_P1;HPM_P2
2020/12/17 00:02:01;;;;;;;5.45;3.63;;;12.10;99.90;;;;;;5017356;28;20260;-91
2020/12/17 00:04:28;;;;;;;4.00;3.60;;;12.10;99.90;;;;;;5020488;28;20227;-92
2020/12/17 00:06:54;;;;;;;4.68;3.80;;;12.10;99.90;;;;;;5002368;28;20201;-91
2020/12/17 00:09:21;;;;;;;4.10;3.20;;;12.10;99.90;;;;;;5018031;28;20192;-92
2020/12/17 00:11:47;;;;;;;4.20;3.20;;;12.10;99.90;;;;;;5017943;28;20231;-91
2020/12/17 00:14:13;;;;;;;4.35;3.25;;;12.20;99.90;;;;;;5018164;28;20622;-91
2020/12/17 00:16:39;;;;;;;3.83;3.50;;;12.20;99.90;;;;;;5017518;28;20180;-91
2020/12/17 00:19:06;;;;;;;3.80;3.47;;;12.20;99.90;;;;;;5017627;28;20177;-91
2020/12/17 00:21:32;;;;;;;4.95;2.92;;;12.20;99.90;;;;;;5001380;28;20180;-91
2020/12/17 00:23:58;;;;;;;4.43;3.10;;;12.20;99.90;;;;;;4985704;28;20172;-91
2020/12/17 00:26:26;;;;;;;3.42;3.08;;;12.20;99.90;;;;;;5016967;28;20171;-91
2020/12/17 00:28:53;;;;;;;4.20;2.95;;;12.10;99.90;;;;;;5001246;28;20580;-91
2020/12/17 00:31:19;;;;;;;3.70;3.25;;;12.00;99.90;;;;;;5001168;28;20284;-91
2020/12/17 00:33:46;;;;;;;3.85;3.28;;;11.90;99.90;;;;;;5018589;28;20582;-91
2020/12/17 00:36:20;;;;;;;3.97;3.60;;;11.80;99.90;;;;;;5017663;28;20201;-91
2020/12/17 00:38:47;;;;;;;4.50;3.60;;;11.70;99.90;;;;;;5008098;28;20207;-92
2020/12/17 00:41:14;;;;;;;5.13;3.85;;;11.70;99.90;;;;;;5016687;28;20177;-91
2020/12/17 00:43:41;;;;;;;4.13;3.72;;;11.70;99.90;;;;;;5000352;28;20176;-92
2020/12/17 00:46:06;;;;;;;5.38;4.68;;;11.60;99.90;;;;;;5016126;28;20184;-92
2020/12/17 00:48:35;;;;;;;4.60;4.07;;;11.60;99.90;;;;;;5032905;28;20264;-92
2020/12/17 00:51:01;;;;;;;5.68;5.07;;;11.60;99.90;;;;;;5017716;28;20252;-92
2020/12/17 00:53:26;;;;;;;4.88;3.78;;;11.50;99.90;;;;;;5000357;28;20208;-92
2020/12/17 00:55:52;;;;;;;4.32;3.97;;;11.50;99.90;;;;;;4999998;28;20291;-92
2020/12/17 00:58:18;;;;;;;5.88;4.07;;;11.50;99.90;;;;;;5016056;28;20173;-92
2020/12/17 01:00:43;;;;;;;4.75;4.35;;;11.40;99.90;;;;;;4999277;28;20183;-92
2020/12/17 01:03:09;;;;;;;5.05;4.55;;;11.40;99.90;;;;;;5000051;28;20295;-93
2020/12/17 01:05:35;;;;;;;6.32;4.43;;;11.40;99.90;;;;;;4999705;28;20224;-91
2020/12/17 01:08:00;;;;;;;9.70;5.07;;;11.40;99.90;;;;;;4983429;28;20180;-92
2020/12/17 01:10:26;;;;;;;4.57;4.20;;;11.40;99.90;;;;;;5015975;28;20622;-92
2020/12/17 01:12:52;;;;;;;5.85;4.10;;;11.40;99.90;;;;;;4983633;28;20172;-92
2020/12/17 01:15:17;;;;;;;7.13;5.07;;;11.40;99.90;;;;;;5015863;28;20287;-91
2020/12/17 01:17:43;;;;;;;5.55;4.47;;;11.40;99.90;;;;;;4999746;28;20647;-91
2020/12/17 01:20:09;;;;;;;6.60;4.28;;;11.40;99.90;;;;;;4999581;28;20184;-91
2020/12/17 01:22:34;;;;;;;8.07;4.53;;;11.40;99.90;;;;;;5015883;28;20169;-91
2020/12/17 01:25:00;;;;;;;6.00;5.07;;;11.40;99.90;;;;;;4999346;28;20605;-92
2020/12/17 01:27:29;;;;;;;5.72;5.03;;;11.40;99.90;;;;;;5015968;28;20180;-91
2020/12/17 01:29:55;;;;;;;7.85;5.20;;;11.40;99.90;;;;;;5015237;28;20192;-92
2020/12/17 01:32:21;;;;;;;6.22;4.40;;;11.30;99.90;;;;;;5015707;28;20169;-92
2020/12/17 01:34:46;;;;;;;6.65;4.97;;;11.30;99.90;;;;;;5015192;28;20199;-92
2020/12/17 01:37:12;;;;;;;6.20;4.88;;;11.40;99.90;;;;;;5015774;28;20226;-92
2020/12/17 01:39:37;;;;;;;5.85;4.70;;;11.40;99.90;;;;;;5032349;28;20537;-92
2020/12/17 01:42:03;;;;;;;4.50;4.10;;;11.40;99.90;;;;;;5015555;28;20176;-92
2020/12/17 01:44:29;;;;;;;6.57;5.13;;;11.50;99.90;;;;;;5015376;28;20207;-92
2020/12/17 01:46:54;;;;;;;7.18;5.05;;;11.50;99.90;;;;;;4999148;28;20172;-93
2020/12/17 01:49:25;;;;;;;5.63;5.13;;;11.50;99.90;;;;;;4999378;28;20187;-93
2020/12/17 01:51:53;;;;;;;8.20;4.80;;;11.50;99.90;;;;;;4999059;28;20196;-93
2020/12/17 01:54:19;;;;;;;6.80;5.35;;;11.50;99.90;;;;;;5015070;28;20569;-93
2020/12/17 01:56:48;;;;;;;6.20;4.72;;;11.50;99.90;;;;;;4979608;28;20308;-93
2020/12/17 01:59:23;;;;;;;6.47;5.93;;;11.50;99.90;;;;;;4999074;28;20561;-93
2020/12/17 02:01:51;;;;;;;11.10;6.07;;;11.50;99.90;;;;;;5019375;28;20172;-92
2020/12/17 02:04:18;;;;;;;6.32;4.93;;;11.50;99.90;;;;;;5039222;28;20191;-92
2020/12/17 02:06:44;;;;;;;8.38;5.70;;;11.50;99.90;;;;;;5051194;28;20200;-94
2020/12/17 02:09:10;;;;;;;6.30;5.70;;;11.50;99.90;;;;;;5027549;28;20219;-93
2020/12/17 02:11:36;;;;;;;6.80;6.10;;;11.50;99.90;;;;;;5013954;28;20267;-94
2020/12/17 02:14:02;;;;;;;7.68;5.80;;;11.40;99.90;;;;;;5015779;28;20215;-95
2020/12/17 02:16:27;;;;;;;8.73;5.70;;;11.40;99.90;;;;;;4998736;28;20226;-93
2020/12/17 02:18:53;;;;;;;7.45;6.70;;;11.30;99.90;;;;;;4998725;28;20235;-94
2020/12/17 02:21:22;;;;;;;7.25;5.95;;;11.30;99.90;;;;;;5003114;28;20772;-92
2020/12/17 02:23:48;;;;;;;10.75;6.78;;;11.20;99.90;;;;;;5034593;28;20272;-95
2020/12/17 02:26:15;;;;;;;6.93;6.22;;;11.30;99.90;;;;;;5020655;28;20176;-94
2020/12/17 02:28:41;;;;;;;11.23;6.82;;;11.20;99.90;;;;;;5015568;28;20294;-94
2020/12/17 02:31:07;;;;;;;7.80;6.78;;;11.20;99.90;;;;;;5013908;28;20191;-94
2020/12/17 02:33:33;;;;;;;10.43;7.00;;;11.20;99.90;;;;;;4998405;28;20173;-94
2020/12/17 02:35:59;;;;;;;7.45;6.78;;;11.20;99.90;;;;;;5014651;28;20206;-94
2020/12/17 02:38:25;;;;;;;9.98;7.10;;;11.20;99.90;;;;;;4981790;28;20630;-94
2020/12/17 02:40:51;;;;;;;10.90;6.75;;;11.10;99.90;;;;;;5014753;28;20184;-94
2020/12/17 02:43:17;;;;;;;8.30;7.50;;;11.20;99.90;;;;;;4997775;28;20268;-94
2020/12/17 02:45:47;;;;;;;11.82;7.07;;;11.10;99.90;;;;;;5014374;28;20169;-93
2020/12/17 02:48:13;;;;;;;11.65;7.35;;;11.20;99.90;;;;;;5014274;28;20195;-94
2020/12/17 02:50:40;;;;;;;9.35;8.07;;;11.20;99.90;;;;;;5014354;28;20169;-94
2020/12/17 02:53:07;;;;;;;8.70;7.18;;;11.10;99.90;;;;;;5014128;28;20684;-94
2020/12/17 02:55:33;;;;;;;8.13;7.30;;;11.10;99.90;;;;;;5014033;28;20590;-93
2020/12/17 02:57:59;;;;;;;11.27;7.80;;;11.10;99.90;;;;;;5015200;28;20179;-95
2020/12/17 03:00:25;;;;;;;11.82;7.25;;;11.10;99.90;;;;;;4998063;28;20173;-92
2020/12/17 03:02:51;;;;;;;9.60;7.38;;;11.10;99.90;;;;;;5014170;28;20179;-94
2020/12/17 03:05:16;;;;;;;8.50;6.82;;;11.10;99.90;;;;;;4997728;28;20177;-94
2020/12/17 03:07:42;;;;;;;9.70;7.20;;;11.10;99.90;;;;;;4997810;28;20263;-93
2020/12/17 03:10:12;;;;;;;8.43;7.15;;;11.10;99.90;;;;;;4981697;28;20169;-94
2020/12/17 03:12:47;;;;;;;7.10;6.45;;;11.10;99.90;;;;;;5013830;28;20179;-93
2020/12/17 03:15:13;;;;;;;8.02;6.30;;;11.10;99.90;;;;;;5014613;28;20200;-94
2020/12/17 03:17:40;;;;;;;10.43;6.47;;;11.10;99.90;;;;;;5013857;28;20169;-93
2020/12/17 03:20:08;;;;;;;7.25;6.55;;;11.10;99.90;;;;;;5014264;28;20230;-94
2020/12/17 03:22:34;;;;;;;8.70;5.80;;;11.10;99.90;;;;;;5013462;28;20253;-94
2020/12/17 03:25:00;;;;;;;6.50;6.00;;;11.10;99.90;;;;;;5015170;28;20697;-94
2020/12/17 03:27:25;;;;;;;8.32;6.03;;;11.00;99.90;;;;;;4981522;28;20278;-94
2020/12/17 03:29:51;;;;;;;7.05;5.65;;;11.00;99.90;;;;;;4997824;28;20284;-94
2020/12/17 03:32:17;;;;;;;11.63;6.75;;;11.10;99.90;;;;;;5014001;28;20180;-94
2020/12/17 03:34:43;;;;;;;6.40;5.80;;;11.00;99.90;;;;;;5023446;28;20211;-94
2020/12/17 03:37:08;;;;;;;6.75;6.15;;;11.00;99.90;;;;;;5011631;28;20207;-94
2020/12/17 03:39:35;;;;;;;9.52;5.93;;;11.00;99.90;;;;;;5012014;28;20184;-95
2020/12/17 03:42:01;;;;;;;8.52;6.72;;;10.90;99.90;;;;;;5013087;28;20196;-94
2020/12/17 03:44:27;;;;;;;6.78;5.97;;;10.90;99.90;;;;;;5033088;28;20180;-93
2020/12/17 03:46:53;;;;;;;6.40;5.75;;;10.90;99.90;;;;;;5021294;28;20160;-93
2020/12/17 03:49:19;;;;;;;12.35;6.60;;;10.90;99.90;;;;;;5038299;28;20157;-92
2020/12/17 03:51:44;;;;;;;8.55;5.72;;;10.90;99.90;;;;;;5004782;28;20184;-92
2020/12/17 03:54:10;;;;;;;6.78;6.18;;;10.90;99.90;;;;;;5036685;28;20164;-93
2020/12/17 03:56:35;;;;;;;6.28;5.78;;;11.00;99.90;;;;;;4993113;28;20673;-94
2020/12/17 03:59:01;;;;;;;7.60;5.65;;;11.00;99.90;;;;;;5015835;28;20188;-94
2020/12/17 04:01:26;;;;;;;6.25;5.75;;;11.10;99.90;;;;;;4998488;28;20197;-94
2020/12/17 04:03:52;;;;;;;6.65;6.00;;;11.00;99.90;;;;;;4998616;28;20587;-94
2020/12/17 04:06:18;;;;;;;7.22;6.32;;;11.00;99.90;;;;;;4998390;28;20192;-93
2020/12/17 04:08:43;;;;;;;6.80;6.05;;;11.00;99.90;;;;;;4998121;28;20179;-93
2020/12/17 04:11:10;;;;;;;10.93;6.20;;;11.10;99.90;;;;;;5014302;28;20176;-93
2020/12/17 04:13:36;;;;;;;6.20;5.70;;;11.10;99.90;;;;;;5014843;28;20173;-94
2020/12/17 04:16:02;;;;;;;8.02;5.00;;;11.10;99.90;;;;;;5029870;28;20207;-94
2020/12/17 04:18:28;;;;;;;6.32;5.82;;;11.20;99.90;;;;;;5013545;28;20272;-93
2020/12/17 04:20:54;;;;;;;7.80;5.40;;;11.20;99.90;;;;;;4997089;28;20255;-93
2020/12/17 04:23:20;;;;;;;5.70;5.15;;;11.20;99.90;;;;;;5030064;28;20177;-94
2020/12/17 04:25:45;;;;;;;5.85;4.93;;;11.30;99.90;;;;;;5013436;28;20235;-93
2020/12/17 04:28:11;;;;;;;5.13;4.70;;;11.30;99.90;;;;;;5013982;28;20173;-93
2020/12/17 04:30:37;;;;;;;7.53;4.60;;;11.30;99.90;;;;;;5030374;28;20219;-93
2020/12/17 04:33:03;;;;;;;8.15;4.97;;;11.30;99.90;;;;;;5019381;28;20181;-93
2020/12/17 04:35:28;;;;;;;5.00;4.22;;;11.30;99.90;;;;;;5031215;28;20208;-93
2020/12/17 04:37:54;;;;;;;6.93;5.28;;;11.30;99.90;;;;;;5019740;28;20263;-93
2020/12/17 04:40:20;;;;;;;4.55;4.15;;;11.30;99.90;;;;;;5016830;28;20200;-93
2020/12/17 04:42:48;;;;;;;5.38;4.35;;;11.20;99.90;;;;;;5016853;28;20583;-94
2020/12/17 04:45:14;;;;;;;6.47;4.85;;;11.10;99.90;;;;;;5033456;28;20189;-93
2020/12/17 04:47:40;;;;;;;4.88;4.38;;;11.00;99.90;;;;;;5009725;28;20184;-93
2020/12/17 04:50:08;;;;;;;6.63;4.13;;;11.00;99.90;;;;;;5040395;28;20228;-93
2020/12/17 04:52:39;;;;;;;4.50;4.10;;;10.90;99.90;;;;;;5030012;28;20168;-94
2020/12/17 04:55:05;;;;;;;5.32;3.90;;;10.90;99.90;;;;;;5000505;28;20200;-94
2020/12/17 04:57:32;;;;;;;4.05;3.75;;;10.80;99.90;;;;;;5016491;28;20539;-94
2020/12/17 04:59:58;;;;;;;7.28;4.32;;;10.80;99.90;;;;;;5032724;28;20181;-92
2020/12/17 05:02:24;;;;;;;5.70;4.40;;;10.70;99.90;;;;;;5017755;28;20176;-94
2020/12/17 05:04:53;;;;;;;5.85;4.72;;;10.70;99.90;;;;;;5000153;28;21776;-93
2020/12/17 05:07:22;;;;;;;5.65;4.00;;;10.70;99.90;;;;;;5016129;28;20157;-93
2020/12/17 05:09:48;;;;;;;4.45;4.10;;;10.70;99.90;;;;;;5016625;28;20263;-93
2020/12/17 05:12:14;;;;;;;4.35;3.63;;;10.60;99.90;;;;;;5016759;28;20614;-93
2020/12/17 05:14:41;;;;;;;6.60;3.72;;;10.60;99.90;;;;;;5016438;28;20204;-94
2020/12/17 05:17:07;;;;;;;5.72;4.30;;;10.60;99.90;;;;;;5016292;28;20185;-93
2020/12/17 05:19:33;;;;;;;4.85;4.13;;;10.50;99.90;;;;;;5016141;28;20183;-93
2020/12/17 05:22:01;;;;;;;4.32;3.92;;;10.50;99.90;;;;;;5017265;28;20236;-94
2020/12/17 05:24:27;;;;;;;4.18;3.55;;;10.60;99.90;;;;;;5015437;28;20180;-94
2020/12/17 05:26:56;;;;;;;3.88;3.47;;;10.60;99.90;;;;;;4983458;28;20184;-94
2020/12/17 05:29:22;;;;;;;4.25;3.60;;;10.50;99.90;;;;;;5015537;28;20203;-94
2020/12/17 05:31:48;;;;;;;3.45;3.15;;;10.50;99.90;;;;;;5015632;28;20177;-93
2020/12/17 05:34:16;;;;;;;3.95;3.50;;;10.40;99.90;;;;;;5032206;28;20629;-94
2020/12/17 05:36:43;;;;;;;2.92;2.72;;;10.40;99.90;;;;;;5015481;28;20347;-93
2020/12/17 05:39:12;;;;;;;4.45;2.90;;;10.40;99.90;;;;;;5015618;28;20172;-94
2020/12/17 05:41:38;;;;;;;3.28;3.00;;;10.40;99.90;;;;;;4999270;28;20247;-93
2020/12/17 05:44:30;;;;;;;6.85;3.10;;;10.30;99.90;;;;;;4999336;28;20177;-93
2020/12/17 05:46:57;;;;;;;3.63;3.17;;;10.20;99.90;;;;;;5016198;28;20481;-93
2020/12/17 05:49:27;;;;;;;3.55;3.25;;;10.20;99.90;;;;;;5016435;28;20259;-93
2020/12/17 05:52:19;;;;;;;3.67;3.13;;;10.20;99.90;;;;;;5016358;28;20173;-93
2020/12/17 05:54:54;;;;;;;3.38;3.08;;;10.30;99.90;;;;;;5016015;28;20192;-94
2020/12/17 05:57:21;;;;;;;3.22;2.92;;;10.20;99.90;;;;;;5016626;28;20172;-92
2020/12/17 06:00:01;;;;;;;5.72;3.08;;;10.10;99.90;;;;;;5015101;28;20189;-93
2020/12/17 06:02:36;;;;;;;6.50;3.15;;;10.20;99.90;;;;;;4998924;28;20191;-93
2020/12/17 06:05:03;;;;;;;10.48;2.55;;;10.20;99.90;;;;;;5016130;28;20226;-93
2020/12/17 06:07:33;;;;;;;5.53;2.67;;;10.20;99.90;;;;;;5016053;28;20164;-93
2020/12/17 06:10:04;;;;;;;6.30;2.40;;;10.20;99.90;;;;;;5016078;28;20165;-93
2020/12/17 06:12:32;;;;;;;2.72;2.53;;;10.30;99.90;;;;;;4998778;28;20259;-93
2020/12/17 06:15:00;;;;;;;4.15;2.50;;;10.40;99.90;;;;;;5014701;28;20251;-93
2020/12/17 06:17:28;;;;;;;2.63;2.42;;;10.40;99.90;;;;;;5014740;28;20627;-93
2020/12/17 06:19:55;;;;;;;3.53;2.10;;;10.50;99.90;;;;;;5014992;28;20180;-93
2020/12/17 06:22:22;;;;;;;2.65;2.45;;;10.50;99.90;;;;;;5014703;28;20180;-93
2020/12/17 06:24:49;;;;;;;2.70;2.20;;;10.50;99.90;;;;;;5014720;28;20181;-93
2020/12/17 06:27:21;;;;;;;2.88;2.50;;;10.50;99.90;;;;;;5015118;28;20173;-93
2020/12/17 06:29:55;;;;;;;2.00;1.90;;;10.50;99.90;;;;;;5017401;28;20614;-93
2020/12/17 06:32:27;;;;;;;3.47;2.28;;;10.50;99.90;;;;;;5015529;28;20173;-93
2020/12/17 06:34:54;;;;;;;5.45;3.85;;;10.50;99.90;;;;;;5015286;28;20201;-93
2020/12/17 06:37:20;;;;;;;3.50;2.10;;;10.50;99.90;;;;;;4998235;28;20199;-93
2020/12/17 06:39:49;;;;;;;2.15;1.80;;;10.50;99.90;;;;;;4998321;28;20183;-93
2020/12/17 06:42:34;;;;;;;4.03;2.00;;;10.50;99.90;;;;;;5014629;28;20184;-93
2020/12/17 06:45:00;;;;;;;3.60;1.95;;;10.50;99.90;;;;;;5014298;28;20177;-93
2020/12/17 06:47:29;;;;;;;4.38;2.45;;;10.60;99.90;;;;;;5014186;28;20177;-93
2020/12/17 06:50:15;;;;;;;3.30;2.28;;;10.60;99.90;;;;;;5014409;28;20649;-93
2020/12/17 06:53:07;;;;;;;3.70;2.15;;;10.60;99.90;;;;;;5014049;28;20262;-93
2020/12/17 06:55:50;;;;;;;2.85;2.15;;;10.70;99.90;;;;;;5014102;28;20192;-93
2020/12/17 06:58:23;;;;;;;8.48;3.05;;;10.60;99.90;;;;;;5034483;28;20164;-91
2020/12/17 07:00:53;;;;;;;6.05;2.65;;;10.70;99.90;;;;;;5036857;28;20157;-94
2020/12/17 07:03:42;;;;;;;3.85;2.65;;;10.60;99.90;;;;;;5033762;28;20164;-93
2020/12/17 07:06:16;;;;;;;5.82;2.95;;;10.60;99.90;;;;;;5014545;28;20259;-93
2020/12/17 07:08:44;;;;;;;10.52;3.42;;;10.60;99.90;;;;;;5014374;28;20263;-93
2020/12/17 07:11:42;;;;;;;5.50;2.80;;;10.60;99.90;;;;;;5013985;28;20168;-93
2020/12/17 07:14:28;;;;;;;6.03;2.92;;;10.50;99.90;;;;;;5016810;28;20232;-92
2020/12/17 07:16:57;;;;;;;4.90;3.42;;;10.50;99.90;;;;;;5023521;28;20185;-92
2020/12/17 07:19:44;;;;;;;11.40;4.07;;;10.50;99.90;;;;;;5035157;28;20172;-93
2020/12/17 07:22:13;;;;;;;5.43;3.50;;;10.50;99.90;;;;;;5016609;28;20152;-93
2020/12/17 07:24:44;;;;;;;4.78;3.53;;;10.50;99.90;;;;;;5013963;28;20169;-93
2020/12/17 07:27:12;;;;;;;4.03;3.72;;;10.40;99.90;;;;;;5013749;28;20173;-94
2020/12/17 07:29:58;;;;;;;6.72;3.88;;;10.30;99.90;;;;;;5013483;28;20195;-93
2020/12/17 07:32:33;;;;;;;8.02;3.78;;;10.20;99.90;;;;;;4998649;28;20224;-93
2020/12/17 07:35:20;;;;;;;5.18;4.68;;;10.10;99.90;;;;;;5014198;28;20195;-92
2020/12/17 07:37:52;;;;;;;4.57;4.07;;;10.00;99.90;;;;;;5030579;28;20169;-92
2020/12/17 07:40:33;;;;;;;5.75;4.88;;;9.90;99.90;;;;;;5014234;28;20838;-81
2020/12/17 07:43:14;;;;;;;7.05;5.18;;;9.90;99.90;;;;;;5013944;28;20175;-94
2020/12/17 07:45:47;;;;;;;6.10;5.05;;;9.80;99.90;;;;;;5015075;28;20183;-93
2020/12/17 07:48:33;;;;;;;7.78;5.10;;;9.80;99.90;;;;;;5015284;28;20187;-92
2020/12/17 07:51:05;;;;;;;7.50;4.45;;;9.70;99.90;;;;;;5015327;28;20169;-93
2020/12/17 07:53:32;;;;;;;7.97;5.10;;;9.70;99.90;;;;;;5015174;28;20212;-92
2020/12/17 07:55:57;;;;;;;7.32;6.38;;;9.70;99.90;;;;;;5014420;28;20258;-93
2020/12/17 07:58:23;;;;;;;8.43;5.95;;;9.70;99.90;;;;;;5014873;28;20173;-91
2020/12/17 08:00:52;;;;;;;8.27;5.10;;;9.70;99.90;;;;;;5016520;28;20176;-92
2020/12/17 08:03:18;;;;;;;8.90;5.50;;;9.70;99.90;;;;;;5015498;28;20173;-91
2020/12/17 08:05:44;;;;;;;10.45;5.72;;;9.70;99.90;;;;;;5014305;28;20180;-93
2020/12/17 08:08:17;;;;;;;8.93;6.57;;;9.70;99.90;;;;;;5014810;28;20177;-90
2020/12/17 08:10:44;;;;;;;7.75;5.68;;;9.80;99.90;;;;;;4996410;28;20638;-91
2020/12/17 08:13:09;;;;;;;15.02;6.13;;;9.80;99.90;;;;;;4981627;28;20639;-91
2020/12/17 08:15:35;;;;;;;10.02;5.97;;;9.90;99.90;;;;;;5014580;28;20236;-91
2020/12/17 08:18:02;;;;;;;12.52;6.85;;;10.10;99.90;;;;;;5009506;28;20184;-91
2020/12/17 08:20:29;;;;;;;10.07;5.28;;;10.30;99.90;;;;;;5016851;28;20173;-91
2020/12/17 08:22:55;;;;;;;10.18;5.60;;;10.40;99.90;;;;;;5018247;28;20623;-91
2020/12/17 08:25:25;;;;;;;17.17;5.43;;;10.50;99.90;;;;;;5016916;28;20181;-91
2020/12/17 08:27:51;;;;;;;6.70;5.15;;;10.50;99.90;;;;;;5016854;28;20180;-91
2020/12/17 08:30:18;;;;;;;9.57;5.45;;;10.70;99.90;;;;;;5012671;28;20201;-92
2020/12/17 08:32:52;;;;;;;9.68;5.32;;;10.70;99.90;;;;;;4995043;28;20177;-92
2020/12/17 08:35:22;;;;;;;7.47;5.80;;;10.70;99.90;;;;;;5015944;28;20273;-92
2020/12/17 08:37:55;;;;;;;8.18;4.63;;;10.70;99.90;;;;;;5016247;28;20626;-91
2020/12/17 08:40:26;;;;;;;6.60;4.63;;;10.80;99.90;;;;;;5016959;28;20169;-92
2020/12/17 08:43:01;;;;;;;8.45;4.57;;;10.70;99.90;;;;;;5007538;28;20236;-92
2020/12/17 08:45:27;;;;;;;11.13;4.80;;;10.80;99.90;;;;;;5008214;28;20184;-92
2020/12/17 08:47:59;;;;;;;6.88;5.07;;;10.80;99.90;;;;;;5022142;28;20178;-92
2020/12/17 08:50:26;;;;;;;13.07;4.68;;;11.00;99.90;;;;;;5016526;28;20169;-92
2020/12/17 08:52:53;;;;;;;7.45;4.30;;;11.10;99.90;;;;;;5016232;28;20626;-92
2020/12/17 08:55:22;;;;;;;10.40;4.18;;;11.20;99.90;;;;;;5016259;28;20266;-92
2020/12/17 08:57:48;;;;;;;10.48;4.40;;;11.50;99.90;;;;;;5017201;28;20614;-92
2020/12/17 09:00:16;;;;;;;8.90;3.58;;;11.90;99.90;;;;;;5017359;28;20175;-90
2020/12/17 09:02:42;;;;;;;17.52;3.55;;;12.40;99.90;;;;;;5020466;28;20176;-92
2020/12/17 09:05:12;;;;;;;6.97;3.30;;;13.70;99.90;;;;;;5017732;28;20238;-91
2020/12/17 09:07:40;;;;;;;7.25;3.20;;;15.10;99.90;;;;;;5016531;28;20165;-86
2020/12/17 09:10:14;;;;;;;5.72;2.53;;;16.20;99.90;;;;;;4999058;28;20204;-85
2020/12/17 09:12:40;;;;;;;7.82;2.75;;;17.40;99.90;;;;;;4998974;28;20199;-85
2020/12/17 09:15:08;;;;;;;5.65;2.58;;;18.20;99.90;;;;;;5015182;28;20204;-86
2020/12/17 09:17:34;;;;;;;6.97;2.55;;;19.00;99.90;;;;;;4999206;28;20649;-83
2020/12/17 09:20:01;;;;;;;7.30;2.22;;;19.40;99.90;;;;;;5015427;28;20173;-85
2020/12/17 09:22:33;;;;;;;3.83;2.33;;;19.60;99.90;;;;;;5014748;28;20235;-85
2020/12/17 09:25:00;;;;;;;7.72;2.50;;;20.10;99.90;;;;;;5012273;28;20288;-86
2020/12/17 09:27:33;;;;;;;12.27;2.72;;;20.00;99.90;;;;;;5034025;28;20184;-84
2020/12/17 09:30:09;;;;;;;5.60;2.25;;;19.70;99.90;;;;;;5027517;28;20215;-86
2020/12/17 09:32:57;;;;;;;2.45;2.05;;;20.00;99.90;;;;;;5017779;28;20183;-86
2020/12/17 09:35:34;;;;;;;10.30;2.95;;;19.10;99.90;;;;;;5013716;28;20208;-86
2020/12/17 09:38:03;;;;;;;11.73;2.75;;;18.00;99.90;;;;;;5014492;28;20183;-85
2020/12/17 09:40:29;;;;;;;8.45;2.55;;;16.80;99.90;;;;;;5014487;28;20238;-85
2020/12/17 09:43:03;;;;;;;5.72;3.10;;;16.00;99.90;;;;;;5014381;28;20169;-85
2020/12/17 09:45:39;;;;;;;4.50;2.75;;;15.50;99.90;;;;;;5031518;28;20169;-86
2020/12/17 09:48:17;;;;;;;7.28;2.78;;;15.10;99.90;;;;;;5019673;28;20168;-85
2020/12/17 09:51:00;;;;;;;7.88;2.63;;;14.80;99.90;;;;;;5014537;28;20169;-85
2020/12/17 09:53:26;;;;;;;4.80;2.60;;;14.80;99.90;;;;;;5014458;28;20525;-85
2020/12/17 09:55:52;;;;;;;12.35;2.65;;;15.10;99.90;;;;;;5015526;28;20196;-85
2020/12/17 09:58:19;;;;;;;7.22;2.63;;;15.10;99.90;;;;;;5013989;28;20641;-85
2020/12/17 10:00:44;;;;;;;6.70;2.38;;;15.60;99.90;;;;;;5010486;28;20240;-85
2020/12/17 10:03:10;;;;;;;7.18;2.65;;;17.40;99.90;;;;;;5011012;28;20185;-85
2020/12/17 10:05:37;;;;;;;5.32;2.50;;;18.80;99.90;;;;;;5022890;28;20184;-85
2020/12/17 10:08:02;;;;;;;7.82;2.10;;;20.50;99.90;;;;;;5015835;28;20549;-84
2020/12/17 10:10:29;;;;;;;6.50;2.50;;;21.70;99.90;;;;;;5015130;28;20177;-86
2020/12/17 10:12:58;;;;;;;4.55;2.03;;;21.90;99.90;;;;;;5015273;28;20177;-85
2020/12/17 10:15:25;;;;;;;4.63;1.92;;;22.20;99.90;;;;;;5026685;28;20199;-86
2020/12/17 10:17:51;;;;;;;8.38;2.42;;;23.00;99.90;;;;;;5006536;28;20184;-85
2020/12/17 10:20:17;;;;;;;4.55;2.03;;;23.00;99.90;;;;;;5014306;28;20626;-85
2020/12/17 10:22:43;;;;;;;4.55;1.85;;;22.50;99.90;;;;;;4999247;28;20184;-89
2020/12/17 10:25:08;;;;;;;5.43;2.08;;;22.50;99.90;;;;;;5014800;28;20177;-90
2020/12/17 10:27:34;;;;;;;4.47;1.63;;;21.20;99.90;;;;;;5018187;28;20634;-90
2020/12/17 10:30:00;;;;;;;9.82;2.20;;;20.00;99.90;;;;;;5034057;28;20192;-90
2020/12/17 10:32:26;;;;;;;13.75;2.95;;;20.60;99.90;;;;;;4984466;28;20200;-91
2020/12/17 10:34:52;;;;;;;8.43;2.75;;;21.40;99.90;;;;;;5016976;28;20215;-88
2020/12/17 10:37:17;;;;;;;8.98;1.92;;;21.60;99.90;;;;;;5016399;28;20176;-91
2020/12/17 10:39:44;;;;;;;5.82;1.90;;;21.40;99.90;;;;;;4998430;28;20188;-91
2020/12/17 10:42:10;;;;;;;5.90;2.70;;;21.10;99.90;;;;;;5033043;28;20168;-90
2020/12/17 10:44:36;;;;;;;3.92;2.13;;;20.20;99.90;;;;;;4996866;28;20171;-90
2020/12/17 10:47:04;;;;;;;5.40;2.00;;;19.30;99.90;;;;;;4992691;28;20181;-92
2020/12/17 10:49:29;;;;;;;6.20;2.05;;;19.20;99.90;;;;;;4998696;28;20285;-91
2020/12/17 10:51:55;;;;;;;4.10;2.05;;;18.10;99.90;;;;;;5014982;28;20226;-91
2020/12/17 10:54:20;;;;;;;8.70;2.47;;;17.90;99.90;;;;;;5014361;28;20180;-93
2020/12/17 10:56:46;;;;;;;7.95;2.28;;;17.70;99.90;;;;;;4983415;28;20212;-94
2020/12/17 10:59:13;;;;;;;8.52;2.13;;;16.80;99.90;;;;;;5018529;28;20169;-94
2020/12/17 11:01:38;;;;;;;8.55;2.08;;;16.30;99.90;;;;;;5017782;28;20177;-93
2020/12/17 11:04:04;;;;;;;8.27;2.35;;;15.70;99.90;;;;;;5031146;28;20168;-94
2020/12/17 11:06:30;;;;;;;6.05;1.67;;;15.10;99.90;;;;;;5000102;28;20176;-92
2020/12/17 11:08:55;;;;;;;7.68;1.77;;;14.50;99.90;;;;;;5016729;28;20259;-92
2020/12/17 11:11:21;;;;;;;5.38;1.65;;;14.40;99.90;;;;;;5016909;28;20729;-94
2020/12/17 11:13:47;;;;;;;8.80;2.05;;;15.30;99.90;;;;;;5016344;28;20168;-93
2020/12/17 11:16:13;;;;;;;5.88;1.95;;;16.40;99.90;;;;;;5017666;28;20200;-93
2020/12/17 11:18:39;;;;;;;9.05;2.05;;;17.50;99.90;;;;;;5000461;28;20188;-94
2020/12/17 11:21:06;;;;;;;6.72;2.50;;;18.70;99.90;;;;;;5017897;28;20173;-96
2020/12/17 11:23:33;;;;;;;7.55;1.70;;;19.20;99.90;;;;;;5016948;28;20168;-89
2020/12/17 11:26:00;;;;;;;7.20;2.97;;;19.40;99.90;;;;;;4976331;28;20181;-95
2020/12/17 11:28:26;;;;;;;7.70;1.85;;;19.40;99.90;;;;;;5015394;28;20184;-93
2020/12/17 11:30:51;;;;;;;7.80;1.83;;;18.50;99.90;;;;;;5014298;28;20196;-93
2020/12/17 11:33:17;;;;;;;4.85;1.88;;;18.80;99.90;;;;;;4982398;28;20634;-92
2020/12/17 11:35:43;;;;;;;8.10;1.85;;;19.40;99.90;;;;;;4981657;28;20208;-92
2020/12/17 11:38:08;;;;;;;10.75;2.03;;;19.60;99.90;;;;;;5030804;28;20169;-92
2020/12/17 11:40:34;;;;;;;7.75;1.70;;;19.90;99.90;;;;;;5016551;28;20252;-92
2020/12/17 11:42:59;;;;;;;10.68;2.13;;;19.50;99.90;;;;;;5033017;28;20169;-91
2020/12/17 11:45:25;;;;;;;6.40;1.75;;;18.90;99.90;;;;;;5035860;28;20557;-95
2020/12/17 11:47:52;;;;;;;12.52;2.17;;;18.50;99.90;;;;;;5018983;28;20177;-94
2020/12/17 11:50:18;;;;;;;9.35;1.92;;;17.50;99.90;;;;;;5019447;28;20176;-94
2020/12/17 11:52:44;;;;;;;7.47;1.83;;;17.40;99.90;;;;;;5020133;28;20521;-90
2020/12/17 11:55:09;;;;;;;8.15;2.42;;;16.50;99.90;;;;;;5020791;28;20788;-92
2020/12/17 11:57:36;;;;;;;8.88;1.67;;;15.40;99.90;;;;;;5019330;28;20263;-91
2020/12/17 12:00:06;;;;;;;9.88;1.92;;;14.70;99.90;;;;;;5019026;28;20180;-92
2020/12/17 12:02:33;;;;;;;6.30;1.73;;;14.30;99.90;;;;;;5019394;28;20175;-92
2020/12/17 12:04:59;;;;;;;7.30;1.92;;;13.90;99.90;;;;;;5018143;28;20227;-91
2020/12/17 12:07:25;;;;;;;15.00;2.78;;;14.00;99.90;;;;;;5017928;28;20173;-92
2020/12/17 12:09:52;;;;;;;8.45;2.28;;;13.70;99.90;;;;;;4999020;28;20181;-92
2020/12/17 12:12:17;;;;;;;7.38;2.55;;;13.40;99.90;;;;;;5000183;28;20169;-92
2020/12/17 12:14:43;;;;;;;8.13;1.98;;;13.10;99.90;;;;;;5011090;28;20178;-92
2020/12/17 12:17:09;;;;;;;6.75;2.08;;;13.00;99.90;;;;;;5018090;28;20232;-92
2020/12/17 12:19:34;;;;;;;8.40;2.20;;;12.70;99.90;;;;;;5025143;28;20179;-91
2020/12/17 12:22:00;;;;;;;10.45;2.25;;;12.50;99.90;;;;;;5022834;28;20179;-93
2020/12/17 12:24:26;;;;;;;9.60;2.25;;;12.30;99.90;;;;;;5004082;28;20211;-94
2020/12/17 12:26:51;;;;;;;6.88;2.33;;;12.30;99.90;;;;;;4986917;28;20267;-93
2020/12/17 12:29:17;;;;;;;11.30;1.92;;;12.30;99.90;;;;;;5018904;28;20205;-94
2020/12/17 12:31:42;;;;;;;15.35;2.20;;;12.50;99.90;;;;;;5007690;28;20161;-93
2020/12/17 12:34:10;;;;;;;8.13;2.28;;;12.60;99.90;;;;;;5020132;28;20618;-93
2020/12/17 12:36:35;;;;;;;6.03;2.10;;;12.50;99.90;;;;;;5030528;28;20287;-94
2020/12/17 12:39:01;;;;;;;7.75;1.80;;;12.50;99.90;;;;;;5004490;28;20246;-93
2020/12/17 12:41:27;;;;;;;6.68;2.05;;;12.40;99.90;;;;;;5003191;28;20553;-93
2020/12/17 12:43:52;;;;;;;8.30;2.17;;;12.40;99.90;;;;;;5020348;28;20196;-94
2020/12/17 12:46:19;;;;;;;8.80;2.00;;;12.30;99.90;;;;;;5019889;28;20177;-93
2020/12/17 12:48:45;;;;;;;7.57;2.10;;;12.30;99.90;;;;;;5019419;28;20582;-92
2020/12/17 12:51:11;;;;;;;13.32;2.22;;;12.30;99.90;;;;;;5000994;28;20207;-92